createdAt,value
2022-08-30T00:01:14.068Z,15.31
2022-08-30T00:03:47.246Z,15.35
2022-08-30T00:06:17.159Z,15.38
2022-08-30T00:08:44.613Z,15.41
2022-08-30T00:11:17.118Z,15.28
2022-08-30T00:13:46.547Z,15.13
2022-08-30T00:16:13.868Z,15.06
2022-08-30T00:18:41.366Z,15.21
2022-08-30T00:21:10.402Z,15.22
2022-08-30T00:23:38.415Z,15.17
2022-08-30T00:26:06.234Z,15.14
2022-08-30T00:28:34.146Z,15.06
2022-08-30T00:31:02.334Z,15.03
2022-08-30T00:33:30.213Z,15.09
2022-08-30T00:35:57.616Z,14.96
2022-08-30T00:38:24.585Z,14.93
2022-08-30T00:40:52.778Z,14.93
2022-08-30T00:43:30.002Z,14.88
2022-08-30T00:45:57.467Z,14.83
2022-08-30T00:48:24.446Z,14.95
2022-08-30T00:51:00.986Z,14.96
2022-08-30T00:53:36.728Z,14.93
2022-08-30T00:56:05.880Z,14.91
2022-08-30T00:58:38.444Z,14.97
2022-08-30T01:01:07.335Z,14.80
2022-08-30T01:03:34.761Z,14.63
2022-08-30T01:06:03.638Z,14.53
2022-08-30T01:08:30.917Z,14.56
2022-08-30T01:10:58.855Z,14.53
2022-08-30T01:13:27.158Z,14.72
2022-08-30T01:15:55.037Z,14.55
2022-08-30T01:18:24.100Z,14.24
2022-08-30T01:21:08.621Z,14.30
2022-08-30T01:23:39.424Z,14.19
2022-08-30T01:26:07.552Z,14.12
2022-08-30T01:28:34.837Z,14.18
2022-08-30T01:31:01.954Z,14.24
2022-08-30T01:33:29.591Z,14.19
2022-08-30T01:36:05.016Z,14.19
2022-08-30T01:38:44.827Z,14.21
2022-08-30T01:41:17.265Z,14.12
2022-08-30T01:43:44.805Z,14.08
2022-08-30T01:46:12.781Z,14.06
2022-08-30T01:48:42.135Z,14.06
2022-08-30T01:51:17.656Z,13.94
2022-08-30T01:53:45.798Z,13.97
2022-08-30T01:56:14.648Z,14.09
2022-08-30T01:58:42.168Z,14.11
2022-08-30T02:01:17.477Z,14.12
2022-08-30T02:03:45.319Z,14.04
2022-08-30T02:06:18.021Z,14.00
2022-08-30T02:08:45.656Z,14.04
2022-08-30T02:11:13.744Z,14.02
2022-08-30T02:13:43.163Z,14.01
2022-08-30T02:16:15.730Z,14.05
2022-08-30T02:18:42.762Z,14.06
2022-08-30T02:21:09.815Z,13.96
2022-08-30T02:23:37.281Z,13.77
2022-08-30T02:26:05.904Z,13.75
2022-08-30T02:28:32.820Z,13.68
2022-08-30T02:31:00.493Z,13.59
2022-08-30T02:33:27.645Z,13.62
2022-08-30T02:35:54.700Z,13.80
2022-08-30T02:38:21.794Z,13.97
2022-08-30T02:40:49.084Z,13.91
2022-08-30T02:43:16.416Z,13.70
2022-08-30T02:45:43.386Z,13.55
2022-08-30T02:48:10.679Z,13.62
2022-08-30T02:50:43.761Z,13.55
2022-08-30T02:53:10.802Z,13.28
2022-08-30T02:55:42.992Z,13.23
2022-08-30T02:58:11.090Z,13.24
2022-08-30T03:00:39.181Z,13.24
2022-08-30T03:03:07.590Z,13.21
2022-08-30T03:05:35.173Z,13.17
2022-08-30T03:08:04.905Z,13.17
2022-08-30T03:10:31.958Z,13.39
2022-08-30T03:12:58.738Z,13.28
2022-08-30T03:15:25.973Z,13.41
2022-08-30T03:17:55.277Z,13.44
2022-08-30T03:20:23.694Z,13.47
2022-08-30T03:22:50.818Z,13.41
2022-08-30T03:25:17.925Z,13.52
2022-08-30T03:27:44.718Z,13.47
2022-08-30T03:30:12.364Z,13.47
2022-08-30T03:32:40.664Z,13.40
2022-08-30T03:35:10.195Z,13.39
2022-08-30T03:37:37.209Z,13.23
2022-08-30T03:40:07.629Z,13.19
2022-08-30T03:42:35.686Z,13.14
2022-08-30T03:45:03.462Z,13.19
2022-08-30T03:47:30.221Z,13.10
2022-08-30T03:49:57.697Z,12.91
2022-08-30T03:52:24.522Z,12.97
2022-08-30T03:54:51.338Z,13.02
2022-08-30T03:57:20.177Z,12.99
2022-08-30T03:59:47.203Z,12.82
2022-08-30T04:02:14.165Z,12.97
2022-08-30T04:04:41.045Z,12.92
2022-08-30T04:07:07.875Z,12.94
2022-08-30T04:09:34.657Z,12.90
2022-08-30T04:12:01.500Z,13.01
2022-08-30T04:14:28.375Z,12.90
2022-08-30T04:16:55.177Z,12.91
2022-08-30T04:19:22.070Z,12.96
2022-08-30T04:21:48.850Z,12.89
2022-08-30T04:24:16.237Z,12.83
2022-08-30T04:26:43.149Z,12.82
2022-08-30T04:29:12.332Z,12.92
2022-08-30T04:31:39.190Z,12.90
2022-08-30T04:34:06.110Z,12.71
2022-08-30T04:36:33.009Z,12.61
2022-08-30T04:38:59.832Z,12.62
2022-08-30T04:41:26.597Z,12.69
2022-08-30T04:43:53.448Z,12.69
2022-08-30T04:46:20.532Z,12.77
2022-08-30T04:48:47.664Z,12.88
2022-08-30T04:51:17.572Z,12.89
2022-08-30T04:53:45.746Z,12.96
2022-08-30T04:56:22.444Z,12.99
2022-08-30T04:58:53.736Z,12.98
2022-08-30T05:01:26.855Z,13.05
2022-08-30T05:03:56.143Z,13.00
2022-08-30T05:06:24.721Z,13.04
2022-08-30T05:08:52.938Z,12.94
2022-08-30T05:11:20.690Z,12.89
2022-08-30T05:13:47.986Z,12.73
2022-08-30T05:16:18.035Z,12.63
2022-08-30T05:18:47.181Z,12.52
2022-08-30T05:21:21.978Z,12.59
2022-08-30T05:23:50.539Z,12.53
2022-08-30T05:26:28.676Z,12.69
2022-08-30T05:28:56.427Z,12.80
2022-08-30T05:31:34.823Z,12.87
2022-08-30T05:34:02.185Z,12.92
2022-08-30T05:36:31.992Z,13.00
2022-08-30T05:39:00.591Z,13.04
2022-08-30T05:41:28.645Z,13.03
2022-08-30T05:43:59.025Z,13.09
2022-08-30T05:46:29.700Z,13.14
2022-08-30T05:48:57.508Z,13.23
2022-08-30T05:51:28.810Z,13.29
2022-08-30T05:53:58.171Z,13.32
2022-08-30T05:56:31.104Z,13.40
2022-08-30T05:58:59.457Z,13.42
2022-08-30T06:01:33.685Z,13.39
2022-08-30T06:04:04.304Z,13.52
2022-08-30T06:06:35.231Z,13.54
2022-08-30T06:09:05.024Z,13.59
2022-08-30T06:11:33.886Z,13.58
2022-08-30T06:14:01.622Z,13.68
2022-08-30T06:16:29.136Z,13.67
2022-08-30T06:18:58.849Z,13.73
2022-08-30T06:21:32.378Z,13.85
2022-08-30T06:23:59.301Z,13.93
2022-08-30T06:26:28.405Z,13.95
2022-08-30T06:28:57.199Z,14.04
2022-08-30T06:31:26.605Z,14.18
2022-08-30T06:33:54.134Z,14.29
2022-08-30T06:36:25.094Z,14.32
2022-08-30T06:38:58.843Z,14.45
2022-08-30T06:41:29.246Z,14.54
2022-08-30T06:43:58.197Z,14.64
2022-08-30T06:46:32.782Z,14.80
2022-08-30T06:49:00.761Z,14.97
2022-08-30T06:51:36.044Z,15.14
2022-08-30T06:54:04.453Z,15.34
2022-08-30T06:56:32.482Z,15.52
2022-08-30T06:59:00.031Z,15.67
2022-08-30T07:01:28.952Z,15.87
2022-08-30T07:03:57.028Z,16.13
2022-08-30T07:06:25.787Z,16.32
2022-08-30T07:08:56.338Z,16.56
2022-08-30T07:11:32.149Z,16.71
2022-08-30T07:13:59.942Z,16.90
2022-08-30T07:16:27.990Z,17.09
2022-08-30T07:18:55.837Z,17.26
2022-08-30T07:21:43.896Z,17.50
2022-08-30T07:24:12.912Z,17.67
2022-08-30T07:26:46.542Z,17.89
2022-08-30T07:29:13.545Z,18.22
2022-08-30T07:31:40.598Z,18.40
2022-08-30T07:34:08.322Z,18.61
2022-08-30T07:36:37.582Z,18.74
2022-08-30T07:39:06.259Z,18.93
2022-08-30T07:41:38.925Z,19.22
2022-08-30T07:44:08.748Z,19.39
2022-08-30T07:46:37.513Z,19.60
2022-08-30T07:49:11.273Z,19.82
2022-08-30T07:51:40.607Z,19.98
2022-08-30T07:54:07.638Z,20.18
2022-08-30T07:56:35.273Z,20.33
2022-08-30T07:59:02.059Z,20.46
2022-08-30T08:01:28.959Z,20.58
2022-08-30T08:03:55.742Z,20.75
2022-08-30T08:06:24.038Z,20.96
2022-08-30T08:08:51.685Z,21.11
2022-08-30T08:11:26.833Z,21.33
2022-08-30T08:13:56.181Z,21.47
2022-08-30T08:16:26.185Z,21.63
2022-08-30T08:18:54.271Z,21.83
2022-08-30T08:21:22.698Z,22.12
2022-08-30T08:23:50.173Z,22.34
2022-08-30T08:26:17.550Z,22.52
2022-08-30T08:28:45.172Z,22.78
2022-08-30T08:31:27.333Z,22.81
2022-08-30T08:34:06.086Z,22.99
2022-08-30T08:36:36.144Z,23.14
2022-08-30T08:39:05.576Z,23.23
2022-08-30T08:42:00.967Z,23.28
2022-08-30T08:44:34.443Z,23.54
2022-08-30T08:47:24.329Z,23.73
2022-08-30T08:49:55.857Z,23.82
2022-08-30T08:52:59.894Z,23.79
2022-08-30T08:55:29.845Z,23.98
2022-08-30T08:57:57.762Z,24.13
2022-08-30T09:00:25.123Z,24.32
2022-08-30T09:03:01.690Z,24.38
2022-08-30T09:05:41.134Z,24.37
2022-08-30T09:08:14.166Z,24.66
2022-08-30T09:10:51.416Z,24.46
2022-08-30T09:13:22.729Z,24.80
2022-08-30T09:15:54.637Z,24.99
2022-08-30T09:18:47.468Z,24.97
2022-08-30T09:21:26.108Z,25.05
2022-08-30T09:24:15.784Z,24.97
2022-08-30T09:26:47.533Z,24.81
2022-08-30T09:29:20.238Z,24.87
2022-08-30T09:32:10.193Z,24.89
2022-08-30T09:34:43.821Z,25.08
2022-08-30T09:37:54.358Z,25.54
2022-08-30T09:40:41.423Z,25.34
2022-08-30T09:43:21.960Z,25.42
2022-08-30T09:46:10.289Z,25.49
2022-08-30T09:48:46.081Z,25.72
2022-08-30T09:51:13.375Z,26.01
2022-08-30T09:54:07.245Z,26.30
2022-08-30T09:57:15.938Z,26.14
2022-08-30T09:59:57.530Z,26.37
2022-08-30T10:03:05.141Z,26.61
2022-08-30T10:06:10.950Z,26.47
2022-08-30T10:09:02.054Z,26.54
2022-08-30T10:11:43.898Z,26.29
2022-08-30T10:14:39.210Z,26.25
2022-08-30T10:17:06.009Z,26.63
2022-08-30T10:20:04.022Z,26.68
2022-08-30T10:22:47.421Z,26.71
2022-08-30T10:25:32.447Z,26.90
2022-08-30T10:28:10.422Z,27.11
2022-08-30T10:30:42.784Z,26.97
2022-08-30T10:33:39.878Z,26.77
2022-08-30T10:36:12.979Z,27.05
2022-08-30T10:38:50.221Z,27.19
2022-08-30T10:41:36.972Z,27.15
2022-08-30T10:44:20.832Z,27.14
2022-08-30T10:47:45.043Z,27.24
2022-08-30T10:50:28.577Z,27.09
2022-08-30T10:53:04.021Z,27.18
2022-08-30T10:55:36.871Z,26.98
2022-08-30T10:58:06.556Z,26.94
2022-08-30T11:01:07.705Z,27.10
2022-08-30T11:03:39.860Z,26.88
2022-08-30T11:06:23.069Z,27.16
2022-08-30T11:08:57.512Z,27.15
2022-08-30T11:12:26.361Z,27.28
2022-08-30T11:14:54.300Z,27.31
2022-08-30T11:18:01.576Z,27.42
2022-08-30T11:20:39.932Z,27.28
2022-08-30T11:23:24.413Z,27.74
2022-08-30T11:26:16.877Z,28.02
2022-08-30T11:28:47.475Z,28.17
2022-08-30T11:31:23.732Z,28.55
2022-08-30T11:34:00.969Z,28.51
2022-08-30T11:39:48.953Z,28.12
2022-08-30T11:42:53.721Z,28.35
2022-08-30T11:45:25.197Z,28.13
2022-08-30T11:47:55.297Z,28.37
2022-08-30T11:50:53.690Z,28.55
2022-08-30T11:53:47.190Z,28.41
2022-08-30T11:56:54.454Z,28.48
2022-08-30T11:59:42.782Z,28.63
2022-08-30T12:02:09.754Z,28.75
2022-08-30T12:04:46.655Z,29.05
2022-08-30T12:07:57.186Z,29.03
2022-08-30T12:10:43.454Z,29.12
2022-08-30T12:13:40.063Z,28.95
2022-08-30T12:16:27.716Z,29.11
2022-08-30T12:19:09.893Z,29.48
2022-08-30T12:21:44.964Z,29.55
2022-08-30T12:24:25.660Z,29.38
2022-08-30T12:26:53.728Z,29.40
2022-08-30T12:29:28.000Z,29.57
2022-08-30T12:31:58.621Z,29.69
2022-08-30T12:34:31.771Z,29.93
2022-08-30T12:37:08.518Z,30.13
2022-08-30T12:39:42.730Z,30.38
2022-08-30T12:42:17.578Z,30.00
2022-08-30T12:44:46.062Z,30.20
2022-08-30T12:47:20.438Z,30.57
2022-08-30T12:49:48.994Z,30.81
2022-08-30T12:52:29.543Z,30.55
2022-08-30T12:55:17.336Z,30.59
2022-08-30T12:58:10.187Z,30.73
2022-08-30T13:00:40.818Z,31.09
2022-08-30T13:03:36.867Z,30.85
2022-08-30T13:06:07.533Z,30.78
2022-08-30T13:08:51.714Z,30.93
2022-08-30T13:11:21.090Z,30.61
2022-08-30T13:13:58.445Z,30.89
2022-08-30T13:16:42.255Z,30.99
2022-08-30T13:19:36.753Z,31.01
2022-08-30T13:22:05.472Z,31.06
2022-08-30T13:24:32.292Z,31.19
2022-08-30T13:27:06.721Z,31.40
2022-08-30T13:29:33.606Z,31.28
2022-08-30T13:32:00.447Z,30.80
2022-08-30T13:34:27.382Z,30.88
2022-08-30T13:36:58.820Z,30.82
2022-08-30T13:39:26.500Z,30.77
2022-08-30T13:41:53.728Z,30.75
2022-08-30T13:44:21.390Z,30.70
2022-08-30T13:46:55.325Z,30.88
2022-08-30T13:49:43.451Z,30.75
2022-08-30T13:52:21.803Z,30.82
2022-08-30T13:54:54.704Z,30.87
2022-08-30T14:00:19.406Z,30.51
2022-08-30T14:02:54.597Z,30.42
2022-08-30T14:11:02.276Z,30.55
2022-08-30T14:13:29.604Z,30.68
2022-08-30T14:18:47.687Z,30.78
2022-08-30T14:21:15.908Z,30.57
2022-08-30T14:23:42.816Z,30.21
2022-08-30T14:26:18.731Z,30.22
2022-08-30T14:28:46.168Z,30.13
2022-08-30T14:31:19.734Z,30.22
2022-08-30T14:33:47.213Z,30.03
2022-08-30T14:36:15.727Z,29.82
2022-08-30T14:38:43.931Z,29.65
2022-08-30T14:41:11.655Z,29.75
2022-08-30T14:43:40.706Z,29.70
2022-08-30T14:46:09.129Z,29.64
2022-08-30T14:48:38.440Z,29.32
2022-08-30T14:51:18.406Z,28.78
2022-08-30T14:53:46.622Z,28.60
2022-08-30T14:56:19.796Z,28.33
2022-08-30T14:58:50.260Z,28.54
2022-08-30T15:01:18.794Z,28.31
2022-08-30T15:03:47.121Z,28.32
2022-08-30T15:06:14.043Z,28.40
2022-08-30T15:08:41.354Z,28.38
2022-08-30T15:11:14.029Z,28.56
2022-08-30T15:13:42.525Z,28.51
2022-08-30T15:16:17.941Z,28.38
2022-08-30T15:18:44.905Z,28.17
2022-08-30T15:21:11.770Z,28.31
2022-08-30T15:23:40.525Z,28.31
2022-08-30T15:26:09.476Z,28.34
2022-08-30T15:28:36.957Z,28.30
2022-08-30T15:31:08.547Z,28.26
2022-08-30T15:33:36.454Z,28.20
2022-08-30T15:36:05.024Z,28.13
2022-08-30T15:38:32.775Z,28.00
2022-08-30T15:41:05.244Z,28.02
2022-08-30T15:43:32.137Z,27.94
2022-08-30T15:46:30.093Z,27.83
2022-08-30T15:49:01.711Z,27.87
2022-08-30T15:51:30.684Z,27.60
2022-08-30T15:53:58.057Z,27.64
2022-08-30T15:56:25.040Z,27.58
2022-08-30T15:58:53.136Z,27.67
2022-08-30T16:01:20.332Z,27.80
2022-08-30T16:03:57.473Z,27.53
2022-08-30T16:06:28.414Z,27.71
2022-08-30T16:08:55.851Z,27.67
2022-08-30T16:11:24.840Z,27.65
2022-08-30T16:13:57.564Z,27.50
2022-08-30T16:16:24.730Z,27.61
2022-08-30T16:18:53.701Z,27.65
2022-08-30T16:21:27.738Z,27.58
2022-08-30T16:23:57.727Z,27.65
2022-08-30T16:26:27.929Z,27.43
2022-08-30T16:28:55.734Z,27.45
2022-08-30T16:31:24.274Z,27.32
2022-08-30T16:33:53.274Z,27.36
2022-08-30T16:36:22.978Z,27.44
2022-08-30T16:38:53.574Z,27.37
2022-08-30T16:41:24.484Z,27.20
2022-08-30T16:43:53.201Z,27.15
2022-08-30T16:46:23.373Z,27.16
2022-08-30T16:49:01.646Z,27.05
2022-08-30T16:51:31.466Z,26.89
2022-08-30T16:54:01.802Z,26.89
2022-08-30T16:56:30.822Z,26.72
2022-08-30T16:59:02.559Z,26.65
2022-08-30T17:01:33.325Z,26.58
2022-08-30T17:04:02.378Z,26.44
2022-08-30T17:06:29.286Z,26.49
2022-08-30T17:08:57.013Z,26.35
2022-08-30T17:11:25.212Z,26.38
2022-08-30T17:13:52.805Z,26.34
2022-08-30T17:16:22.582Z,26.27
2022-08-30T17:18:59.989Z,26.18
2022-08-30T17:21:31.021Z,26.03
2022-08-30T17:24:01.430Z,25.90
2022-08-30T17:26:46.154Z,25.83
2022-08-30T17:29:12.969Z,25.74
2022-08-30T17:31:46.362Z,25.54
2022-08-30T17:34:18.038Z,25.47
2022-08-30T17:36:44.946Z,25.29
2022-08-30T17:39:13.066Z,25.16
2022-08-30T17:41:48.255Z,25.12
2022-08-30T17:44:25.887Z,25.01
2022-08-30T17:46:53.781Z,24.89
2022-08-30T17:49:21.401Z,24.76
2022-08-30T17:51:54.200Z,24.71
2022-08-30T17:54:24.482Z,24.55
2022-08-30T17:56:52.965Z,24.49
2022-08-30T17:59:24.839Z,24.29
2022-08-30T18:01:54.760Z,24.29
2022-08-30T18:04:22.330Z,24.20
2022-08-30T18:06:52.382Z,24.09
2022-08-30T18:09:19.212Z,23.97
2022-08-30T18:11:48.278Z,23.90
2022-08-30T18:14:16.413Z,23.73
2022-08-30T18:16:50.216Z,23.68
2022-08-30T18:19:21.693Z,23.50
2022-08-30T18:21:48.650Z,23.30
2022-08-30T18:24:16.794Z,23.32
2022-08-30T18:26:43.813Z,23.17
2022-08-30T18:29:11.039Z,23.17
2022-08-30T18:31:38.349Z,23.01
2022-08-30T18:34:07.051Z,22.96
2022-08-30T18:36:40.715Z,22.81
2022-08-30T18:39:08.573Z,22.79
2022-08-30T18:41:43.049Z,22.69
2022-08-30T18:44:26.738Z,22.60
2022-08-30T18:46:56.066Z,22.33
2022-08-30T18:49:27.006Z,22.36
2022-08-30T18:51:54.548Z,22.31
2022-08-30T18:54:21.594Z,22.20
2022-08-30T18:56:49.658Z,22.08
2022-08-30T18:59:17.419Z,22.08
2022-08-30T19:01:47.171Z,22.00
2022-08-30T19:04:22.479Z,21.94
2022-08-30T19:06:57.269Z,21.85
2022-08-30T19:09:24.083Z,21.77
2022-08-30T19:11:53.917Z,21.76
2022-08-30T19:14:20.715Z,21.65
2022-08-30T19:16:48.212Z,21.09
2022-08-30T19:19:15.662Z,21.11
2022-08-30T19:21:42.458Z,20.99
2022-08-30T19:24:09.898Z,20.97
2022-08-30T19:26:38.457Z,20.99
2022-08-30T19:29:06.767Z,20.85
2022-08-30T19:31:34.154Z,20.88
2022-08-30T19:34:01.061Z,20.69
2022-08-30T19:36:29.024Z,20.69
2022-08-30T19:38:56.025Z,20.76
2022-08-30T19:41:23.566Z,20.71
2022-08-30T19:43:51.462Z,20.69
2022-08-30T19:46:18.542Z,20.65
2022-08-30T19:48:45.613Z,20.68
2022-08-30T19:51:15.214Z,20.67
2022-08-30T19:53:58.657Z,20.65
2022-08-30T19:56:30.568Z,20.61
2022-08-30T19:58:57.428Z,20.50
2022-08-30T20:01:33.502Z,20.53
2022-08-30T20:04:02.268Z,20.45
2022-08-30T20:06:30.973Z,20.48
2022-08-30T20:09:00.405Z,20.41
2022-08-30T20:11:28.663Z,20.35
2022-08-30T20:13:55.773Z,20.33
2022-08-30T20:16:33.053Z,20.31
2022-08-30T20:19:06.621Z,20.29
2022-08-30T20:21:34.282Z,20.30
2022-08-30T20:24:02.921Z,20.25
2022-08-30T20:26:34.366Z,20.23
2022-08-30T20:29:03.560Z,20.18
2022-08-30T20:31:30.687Z,20.17
2022-08-30T20:33:57.814Z,20.15
2022-08-30T20:36:24.597Z,20.06
2022-08-30T20:38:51.673Z,19.92
2022-08-30T20:41:19.941Z,19.86
2022-08-30T20:43:48.866Z,19.87
2022-08-30T20:46:19.550Z,19.81
2022-08-30T20:48:47.823Z,19.84
2022-08-30T20:51:19.086Z,19.83
2022-08-30T20:53:46.133Z,19.78
2022-08-30T20:56:19.669Z,19.76
2022-08-30T20:58:46.519Z,19.76
2022-08-30T21:01:14.722Z,19.67
2022-08-30T21:03:43.946Z,19.66
2022-08-30T21:06:11.905Z,19.64
2022-08-30T21:08:39.949Z,19.63
2022-08-30T21:11:07.242Z,19.50
2022-08-30T21:13:34.057Z,19.58
2022-08-30T21:16:03.539Z,19.58
2022-08-30T21:18:34.151Z,19.58
2022-08-30T21:21:14.909Z,19.59
2022-08-30T21:23:42.910Z,19.62
2022-08-30T21:26:10.909Z,19.52
2022-08-30T21:28:38.952Z,19.42
2022-08-30T21:31:14.789Z,19.43
2022-08-30T21:33:42.058Z,19.36
2022-08-30T21:36:28.967Z,19.45
2022-08-30T21:39:00.904Z,19.40
2022-08-30T21:41:30.213Z,19.43
2022-08-30T21:44:00.024Z,19.36
2022-08-30T21:46:28.323Z,19.37
2022-08-30T21:48:58.115Z,19.34
2022-08-30T21:51:25.283Z,19.32
2022-08-30T21:53:52.057Z,19.42
2022-08-30T21:56:22.244Z,19.43
2022-08-30T21:58:49.885Z,19.43
2022-08-30T22:01:23.722Z,19.43
2022-08-30T22:03:53.319Z,19.34
2022-08-30T22:06:20.615Z,19.33
2022-08-30T22:08:48.961Z,19.34
2022-08-30T22:11:21.637Z,19.19
2022-08-30T22:13:50.639Z,19.22
2022-08-30T22:16:22.933Z,19.23
2022-08-30T22:18:50.632Z,19.31
2022-08-30T22:21:23.196Z,19.27
2022-08-30T22:23:50.593Z,19.27
2022-08-30T22:26:19.455Z,19.28
2022-08-30T22:28:46.360Z,19.26
2022-08-30T22:31:15.965Z,19.32
2022-08-30T22:33:43.598Z,19.23
2022-08-30T22:36:21.063Z,19.26
2022-08-30T22:38:48.958Z,19.27
2022-08-30T22:41:18.641Z,19.32
2022-08-30T22:43:48.875Z,19.27
2022-08-30T22:46:18.458Z,19.28
2022-08-30T22:48:56.135Z,19.18
2022-08-30T22:51:23.053Z,19.21
2022-08-30T22:53:50.323Z,19.26
2022-08-30T22:56:22.983Z,19.27
2022-08-30T22:58:50.029Z,18.99
2022-08-30T23:01:26.919Z,19.13
2022-08-30T23:03:54.294Z,19.16
2022-08-30T23:06:22.184Z,19.17
2022-08-30T23:08:49.460Z,19.12
2022-08-30T23:11:17.119Z,19.12
2022-08-30T23:13:44.801Z,18.93
2022-08-30T23:16:13.077Z,19.02
2022-08-30T23:18:42.573Z,19.04
2022-08-30T23:21:24.519Z,19.05
2022-08-30T23:24:11.572Z,19.09
2022-08-30T23:26:59.800Z,19.04
2022-08-30T23:29:46.476Z,19.04
2022-08-30T23:32:32.876Z,19.03
2022-08-30T23:35:18.151Z,19.07
2022-08-30T23:38:05.345Z,19.03
2022-08-30T23:40:50.865Z,19.02
2022-08-30T23:43:36.604Z,19.03
2022-08-30T23:46:22.132Z,18.79
2022-08-30T23:49:09.219Z,18.94
2022-08-30T23:51:56.911Z,18.93
2022-08-30T23:54:43.533Z,18.92
2022-08-30T23:57:28.778Z,18.91
